Time;durP1;ratioP1;P1;durP2;ratioP2;P2;SDS_P1;SDS_P2;PMS_P1;PMS_P2;Temp;Humidity;BMP_temperature;BMP_pressure;BME280_temperature;BME280_humidity;BME280_pressure;Samples;Min_cycle;Max_cycle;Signal;HPM_P1;HPM_P2
2022/01/09 00:00:09;;;;;;;0.70;0.70;;;;;;;;;;1863404;76;26250;-33
2022/01/09 00:02:37;;;;;;;0.60;0.60;;;;;;;;;;1855882;76;27089;-32
2022/01/09 00:05:05;;;;;;;0.80;0.80;;;;;;;;;;1865308;76;26257;-33
2022/01/09 00:07:32;;;;;;;0.70;0.70;;;;;;;;;;1863312;76;26306;-32
2022/01/09 00:09:59;;;;;;;0.70;0.70;;;;;;;;;;1865482;76;27264;-32
2022/01/09 00:12:27;;;;;;;0.60;0.60;;;;;;;;;;1855494;76;26320;-34
2022/01/09 00:14:54;;;;;;;1.75;0.68;;;;;;;;;;1860429;76;26342;-32
2022/01/09 00:17:21;;;;;;;0.70;0.70;;;;;;;;;;1860609;76;26264;-32
2022/01/09 00:19:48;;;;;;;0.55;0.55;;;;;;;;;;1867740;76;26257;-34
2022/01/09 00:22:20;;;;;;;1.05;0.70;;;;;;;;;;1862951;76;26311;-33
2022/01/09 00:24:45;;;;;;;0.47;0.47;;;;;;;;;;1875061;75;26303;-34
2022/01/09 00:27:13;;;;;;;0.50;0.50;;;;;;;;;;1877634;76;26270;-32
2022/01/09 00:29:40;;;;;;;0.60;0.60;;;;;;;;;;1870913;76;26312;-34
2022/01/09 00:32:07;;;;;;;0.53;0.53;;;;;;;;;;1870843;76;26333;-31
2022/01/09 00:34:35;;;;;;;0.62;0.60;;;;;;;;;;1873641;76;26727;-34
2022/01/09 00:37:02;;;;;;;0.50;0.50;;;;;;;;;;1872840;76;26825;-34
2022/01/09 00:39:29;;;;;;;0.47;0.47;;;;;;;;;;1866805;76;26277;-35
2022/01/09 00:41:56;;;;;;;0.60;0.60;;;;;;;;;;1879136;76;26280;-33
2022/01/09 00:44:24;;;;;;;0.47;0.47;;;;;;;;;;1875586;76;26243;-33
2022/01/09 00:46:51;;;;;;;0.60;0.60;;;;;;;;;;1872651;76;26358;-31
2022/01/09 00:49:18;;;;;;;0.50;0.50;;;;;;;;;;1870031;76;26260;-34
2022/01/09 00:51:45;;;;;;;0.50;0.50;;;;;;;;;;1871330;76;26245;-32
2022/01/09 00:54:13;;;;;;;0.50;0.50;;;;;;;;;;1878422;76;26255;-31
2022/01/09 00:56:40;;;;;;;0.50;0.50;;;;;;;;;;1872081;76;26358;-33
2022/01/09 00:59:07;;;;;;;0.55;0.55;;;;;;;;;;1863887;75;26369;-34
2022/01/09 01:01:34;;;;;;;0.60;0.60;;;;;;;;;;1868384;76;26660;-31
2022/01/09 01:04:02;;;;;;;0.60;0.60;;;;;;;;;;1869560;76;26777;-31
2022/01/09 01:06:29;;;;;;;0.45;0.45;;;;;;;;;;1871591;76;26626;-32
2022/01/09 01:08:56;;;;;;;0.50;0.50;;;;;;;;;;1864324;76;26273;-31
2022/01/09 01:11:24;;;;;;;0.60;0.60;;;;;;;;;;1875358;76;26953;-32
2022/01/09 01:13:51;;;;;;;0.98;0.62;;;;;;;;;;1869452;76;26240;-31
2022/01/09 01:16:18;;;;;;;0.50;0.50;;;;;;;;;;1870555;76;26246;-31
2022/01/09 01:18:46;;;;;;;0.60;0.60;;;;;;;;;;1875798;76;26279;-32
2022/01/09 01:21:13;;;;;;;0.70;0.70;;;;;;;;;;1868193;76;26760;-32
2022/01/09 01:23:41;;;;;;;0.60;0.60;;;;;;;;;;1870084;76;26231;-31
2022/01/09 01:26:08;;;;;;;0.40;0.40;;;;;;;;;;1860525;76;26859;-32
2022/01/09 01:28:36;;;;;;;0.60;0.60;;;;;;;;;;1857552;76;26393;-31
2022/01/09 01:31:03;;;;;;;0.50;0.50;;;;;;;;;;1865866;76;26280;-31
2022/01/09 01:33:30;;;;;;;0.60;0.60;;;;;;;;;;1866617;76;26183;-32
2022/01/09 01:35:57;;;;;;;0.60;0.60;;;;;;;;;;1855551;76;26249;-30
2022/01/09 01:38:25;;;;;;;0.50;0.50;;;;;;;;;;1865378;75;26232;-32
2022/01/09 01:40:52;;;;;;;0.60;0.60;;;;;;;;;;1868468;76;26253;-31
2022/01/09 01:43:19;;;;;;;0.60;0.60;;;;;;;;;;1858276;76;26267;-31
2022/01/09 01:45:46;;;;;;;0.60;0.60;;;;;;;;;;1859050;76;26737;-32
2022/01/09 01:48:14;;;;;;;0.78;0.78;;;;;;;;;;1859142;76;26717;-31
2022/01/09 01:50:42;;;;;;;0.60;0.60;;;;;;;;;;1866429;76;26255;-34
2022/01/09 01:53:15;;;;;;;0.60;0.60;;;;;;;;;;1861362;76;27355;-31
2022/01/09 01:55:41;;;;;;;0.70;0.70;;;;;;;;;;1856205;75;26329;-33
2022/01/09 01:58:12;;;;;;;0.60;0.60;;;;;;;;;;1864454;76;26342;-31
2022/01/09 02:00:41;;;;;;;0.70;0.70;;;;;;;;;;1857993;76;26202;-31
2022/01/09 02:03:09;;;;;;;0.57;0.57;;;;;;;;;;1862033;75;26651;-31
2022/01/09 02:05:37;;;;;;;0.60;0.60;;;;;;;;;;1861271;75;26836;-31
2022/01/09 02:08:04;;;;;;;0.60;0.60;;;;;;;;;;1859221;76;26309;-33
2022/01/09 02:10:32;;;;;;;0.70;0.70;;;;;;;;;;1863160;76;26744;-32
2022/01/09 02:13:01;;;;;;;1.75;0.70;;;;;;;;;;1860587;76;26445;-34
2022/01/09 02:15:29;;;;;;;0.70;0.70;;;;;;;;;;1863108;76;26261;-30
2022/01/09 02:17:57;;;;;;;0.50;0.50;;;;;;;;;;1869849;76;26253;-32
2022/01/09 02:20:24;;;;;;;0.60;0.60;;;;;;;;;;1865006;76;26256;-34
2022/01/09 02:22:51;;;;;;;0.55;0.55;;;;;;;;;;1858349;76;26330;-31
2022/01/09 02:25:19;;;;;;;0.60;0.60;;;;;;;;;;1869096;76;26341;-31
2022/01/09 02:27:46;;;;;;;0.68;0.68;;;;;;;;;;1855347;76;27304;-33
2022/01/09 02:30:13;;;;;;;0.70;0.70;;;;;;;;;;1859186;76;26334;-32
2022/01/09 02:32:41;;;;;;;0.65;0.65;;;;;;;;;;1861095;76;26260;-33
2022/01/09 02:35:08;;;;;;;0.68;0.68;;;;;;;;;;1858962;76;26697;-31
2022/01/09 02:37:36;;;;;;;0.80;0.80;;;;;;;;;;1860578;76;26365;-32
2022/01/09 02:40:04;;;;;;;0.68;0.68;;;;;;;;;;1868666;76;26337;-31
2022/01/09 02:42:32;;;;;;;0.70;0.70;;;;;;;;;;1858876;76;26248;-32
2022/01/09 02:44:59;;;;;;;0.60;0.60;;;;;;;;;;1868604;76;26583;-34
2022/01/09 02:47:33;;;;;;;0.70;0.70;;;;;;;;;;1860215;76;26304;-34
2022/01/09 02:50:02;;;;;;;0.62;0.60;;;;;;;;;;1861311;76;26271;-32
2022/01/09 02:55:12;;;;;;;0.60;0.60;;;;;;;;;;1861270;76;26310;-34
2022/01/09 02:57:40;;;;;;;0.65;0.65;;;;;;;;;;1856311;76;26757;-33
2022/01/09 03:00:09;;;;;;;0.70;0.70;;;;;;;;;;1862594;76;26331;-31
2022/01/09 03:02:36;;;;;;;0.60;0.60;;;;;;;;;;1863419;76;26406;-31
2022/01/09 03:05:04;;;;;;;0.80;0.80;;;;;;;;;;1866407;76;26699;-32
2022/01/09 03:07:31;;;;;;;0.60;0.60;;;;;;;;;;1859718;76;26273;-32
2022/01/09 03:09:59;;;;;;;0.60;0.60;;;;;;;;;;1859464;76;26950;-31
2022/01/09 03:12:26;;;;;;;0.70;0.70;;;;;;;;;;1870374;75;26724;-32
2022/01/09 03:14:53;;;;;;;0.60;0.60;;;;;;;;;;1865668;76;26253;-31
2022/01/09 03:17:21;;;;;;;0.60;0.60;;;;;;;;;;1870866;76;26253;-31
2022/01/09 03:19:48;;;;;;;0.55;0.55;;;;;;;;;;1865386;76;26343;-32
2022/01/09 03:22:15;;;;;;;0.60;0.60;;;;;;;;;;1862137;75;26261;-31
2022/01/09 03:24:43;;;;;;;0.50;0.50;;;;;;;;;;1865658;76;26353;-34
2022/01/09 03:27:11;;;;;;;0.70;0.70;;;;;;;;;;1863914;76;26333;-34
2022/01/09 03:29:39;;;;;;;0.60;0.60;;;;;;;;;;1870045;76;26231;-32
2022/01/09 03:32:07;;;;;;;0.60;0.60;;;;;;;;;;1861969;76;26246;-31
2022/01/09 03:34:35;;;;;;;0.50;0.50;;;;;;;;;;1860029;76;25956;-32
2022/01/09 03:37:03;;;;;;;0.60;0.60;;;;;;;;;;1865667;76;26777;-31
2022/01/09 03:39:31;;;;;;;0.60;0.60;;;;;;;;;;1870107;76;26246;-32
2022/01/09 03:41:59;;;;;;;0.60;0.60;;;;;;;;;;1870176;76;26277;-31
2022/01/09 03:44:26;;;;;;;0.60;0.60;;;;;;;;;;1863702;76;26215;-31
2022/01/09 03:46:54;;;;;;;0.53;0.53;;;;;;;;;;1859406;76;26238;-33
2022/01/09 03:49:22;;;;;;;0.60;0.60;;;;;;;;;;1866713;76;26340;-34
2022/01/09 03:51:54;;;;;;;0.60;0.60;;;;;;;;;;1865679;76;26195;-31
2022/01/09 03:54:22;;;;;;;0.50;0.50;;;;;;;;;;1862206;76;26823;-31
2022/01/09 03:56:52;;;;;;;0.50;0.50;;;;;;;;;;1867405;76;26317;-32
2022/01/09 03:59:19;;;;;;;0.60;0.60;;;;;;;;;;1868040;76;26190;-31
2022/01/09 04:01:47;;;;;;;0.60;0.60;;;;;;;;;;1865932;76;26341;-33
2022/01/09 04:04:15;;;;;;;0.50;0.50;;;;;;;;;;1868816;75;26776;-31
2022/01/09 04:06:46;;;;;;;0.57;0.57;;;;;;;;;;1864363;76;26241;-31
2022/01/09 04:09:18;;;;;;;0.50;0.50;;;;;;;;;;1856815;76;26424;-34
2022/01/09 04:11:41;;;;;;;0.50;0.50;;;;;;;;;;1861325;76;26315;-32
2022/01/09 04:14:08;;;;;;;0.50;0.50;;;;;;;;;;1863531;76;26282;-31
2022/01/09 04:16:35;;;;;;;0.47;0.47;;;;;;;;;;1870965;76;26269;-31
2022/01/09 04:19:03;;;;;;;0.50;0.50;;;;;;;;;;1867539;76;26312;-31
2022/01/09 04:21:30;;;;;;;0.50;0.50;;;;;;;;;;1870539;76;26730;-31
2022/01/09 04:23:58;;;;;;;0.40;0.40;;;;;;;;;;1869447;76;26320;-31
2022/01/09 04:26:25;;;;;;;0.50;0.50;;;;;;;;;;1880941;75;26186;-31
2022/01/09 04:28:52;;;;;;;0.37;0.37;;;;;;;;;;1876230;75;26319;-34
2022/01/09 04:31:19;;;;;;;0.40;0.40;;;;;;;;;;1870547;75;26306;-32
2022/01/09 04:33:47;;;;;;;0.50;0.50;;;;;;;;;;1886535;75;26844;-30
2022/01/09 04:36:14;;;;;;;0.40;0.40;;;;;;;;;;1885496;75;26327;-31
2022/01/09 04:38:41;;;;;;;0.40;0.40;;;;;;;;;;1882042;75;26250;-32
2022/01/09 04:41:09;;;;;;;0.35;0.35;;;;;;;;;;1885705;75;26249;-32
2022/01/09 04:43:36;;;;;;;0.35;0.35;;;;;;;;;;1876735;75;26242;-33
2022/01/09 04:46:03;;;;;;;0.50;0.50;;;;;;;;;;1877192;75;26292;-32
2022/01/09 04:48:31;;;;;;;0.40;0.40;;;;;;;;;;1878583;75;26287;-31
2022/01/09 04:50:58;;;;;;;0.55;0.40;;;;;;;;;;1888414;75;26839;-31
2022/01/09 04:53:26;;;;;;;0.40;0.40;;;;;;;;;;1884039;75;26318;-32
2022/01/09 04:55:53;;;;;;;0.50;0.50;;;;;;;;;;1879946;75;26268;-33
2022/01/09 04:58:21;;;;;;;0.40;0.40;;;;;;;;;;1879973;75;26252;-31
2022/01/09 05:00:48;;;;;;;0.40;0.40;;;;;;;;;;1881273;75;26698;-32
2022/01/09 05:03:18;;;;;;;0.40;0.40;;;;;;;;;;1883002;75;26343;-30
2022/01/09 05:05:44;;;;;;;0.40;0.40;;;;;;;;;;1881873;75;26449;-34
2022/01/09 05:08:12;;;;;;;0.37;0.37;;;;;;;;;;1879148;75;26268;-32
2022/01/09 05:10:39;;;;;;;0.35;0.35;;;;;;;;;;1875448;75;26183;-31
2022/01/09 05:13:06;;;;;;;0.50;0.50;;;;;;;;;;1881355;75;26274;-32
2022/01/09 05:15:33;;;;;;;0.30;0.30;;;;;;;;;;1875252;74;26316;-32
2022/01/09 05:18:04;;;;;;;0.33;0.33;;;;;;;;;;1871365;75;26304;-31
2022/01/09 05:20:30;;;;;;;0.40;0.40;;;;;;;;;;1880310;75;26342;-32
2022/01/09 05:22:57;;;;;;;0.30;0.30;;;;;;;;;;1873197;74;26730;-32
2022/01/09 05:25:24;;;;;;;0.40;0.40;;;;;;;;;;1869811;75;26286;-31
2022/01/09 05:27:52;;;;;;;0.30;0.30;;;;;;;;;;1859175;76;26299;-31
2022/01/09 05:30:19;;;;;;;0.40;0.40;;;;;;;;;;1861744;76;26261;-30
2022/01/09 05:32:46;;;;;;;0.50;0.50;;;;;;;;;;1861932;76;26674;-31
2022/01/09 05:35:14;;;;;;;0.47;0.47;;;;;;;;;;1862648;75;26227;-32
2022/01/09 05:37:41;;;;;;;0.55;0.55;;;;;;;;;;1859831;75;26843;-31
2022/01/09 05:40:09;;;;;;;0.25;0.25;;;;;;;;;;1855558;76;26702;-34
2022/01/09 05:42:37;;;;;;;0.28;0.28;;;;;;;;;;1863846;76;26359;-31
2022/01/09 05:45:07;;;;;;;0.40;0.40;;;;;;;;;;1867746;75;26277;-31
2022/01/09 05:47:34;;;;;;;0.50;0.50;;;;;;;;;;1861904;76;26643;-34
2022/01/09 05:50:02;;;;;;;0.40;0.40;;;;;;;;;;1857892;76;26285;-32
2022/01/09 05:52:29;;;;;;;0.30;0.30;;;;;;;;;;1855819;76;26213;-31
2022/01/09 05:54:57;;;;;;;0.40;0.40;;;;;;;;;;1865466;76;26253;-32
2022/01/09 05:57:24;;;;;;;0.40;0.40;;;;;;;;;;1862867;76;26190;-32
2022/01/09 05:59:51;;;;;;;0.37;0.37;;;;;;;;;;1866486;75;26189;-32
2022/01/09 06:02:19;;;;;;;0.42;0.42;;;;;;;;;;1870360;76;26235;-32
2022/01/09 06:04:46;;;;;;;0.35;0.35;;;;;;;;;;1861661;76;26406;-33
2022/01/09 06:07:13;;;;;;;0.40;0.40;;;;;;;;;;1861497;76;26254;-31
2022/01/09 06:09:40;;;;;;;0.30;0.30;;;;;;;;;;1864796;76;26190;-31
2022/01/09 06:12:08;;;;;;;0.40;0.40;;;;;;;;;;1869408;76;26258;-31
2022/01/09 06:14:36;;;;;;;0.30;0.30;;;;;;;;;;1860268;76;26409;-31
2022/01/09 06:17:03;;;;;;;0.30;0.30;;;;;;;;;;1863120;76;26722;-31
2022/01/09 06:19:31;;;;;;;0.40;0.40;;;;;;;;;;1860527;76;26271;-32
2022/01/09 06:21:58;;;;;;;0.70;0.40;;;;;;;;;;1869795;75;26305;-31
2022/01/09 06:24:25;;;;;;;0.40;0.40;;;;;;;;;;1862676;76;26328;-32
2022/01/09 06:26:52;;;;;;;0.40;0.40;;;;;;;;;;1865501;76;26245;-32
2022/01/09 06:29:19;;;;;;;1.25;0.30;;;;;;;;;;1870461;76;26332;-32
2022/01/09 06:31:47;;;;;;;0.30;0.30;;;;;;;;;;1864216;75;26196;-33
2022/01/09 06:34:14;;;;;;;0.40;0.40;;;;;;;;;;1866178;76;26698;-32
2022/01/09 06:36:41;;;;;;;0.42;0.42;;;;;;;;;;1858535;75;27210;-34
2022/01/09 06:39:09;;;;;;;0.50;0.50;;;;;;;;;;1868962;76;26249;-31
2022/01/09 06:41:36;;;;;;;0.53;0.50;;;;;;;;;;1859313;75;26241;-32
2022/01/09 06:44:04;;;;;;;0.40;0.40;;;;;;;;;;1865117;76;26332;-33
2022/01/09 06:46:31;;;;;;;1.20;0.50;;;;;;;;;;1861086;76;26761;-32
2022/01/09 06:48:58;;;;;;;0.50;0.50;;;;;;;;;;1862465;76;26822;-31
2022/01/09 06:51:26;;;;;;;0.53;0.53;;;;;;;;;;1863959;76;26316;-31
2022/01/09 06:53:53;;;;;;;1.60;0.53;;;;;;;;;;1866178;76;26329;-33
2022/01/09 06:56:20;;;;;;;1.22;0.60;;;;;;;;;;1865595;76;26226;-31
2022/01/09 06:58:47;;;;;;;0.40;0.40;;;;;;;;;;1864540;76;26317;-32
2022/01/09 07:01:15;;;;;;;0.65;0.40;;;;;;;;;;1856198;76;26281;-34
2022/01/09 07:03:42;;;;;;;0.53;0.50;;;;;;;;;;1865630;76;26300;-34
2022/01/09 07:06:10;;;;;;;0.45;0.40;;;;;;;;;;1867425;75;26271;-33
2022/01/09 07:08:38;;;;;;;0.42;0.42;;;;;;;;;;1867655;76;26293;-31
2022/01/09 07:11:05;;;;;;;0.80;0.50;;;;;;;;;;1866422;76;26796;-32
2022/01/09 07:13:33;;;;;;;1.07;0.90;;;;;;;;;;1865898;75;26297;-33
2022/01/09 07:16:00;;;;;;;0.65;0.47;;;;;;;;;;1850942;76;26618;-32
2022/01/09 07:18:28;;;;;;;1.47;0.45;;;;;;;;;;1855116;76;26622;-32
2022/01/09 07:20:55;;;;;;;0.42;0.42;;;;;;;;;;1865648;76;26299;-32
2022/01/09 07:23:22;;;;;;;0.40;0.40;;;;;;;;;;1860058;76;26248;-33
2022/01/09 07:25:49;;;;;;;1.95;0.78;;;;;;;;;;1857715;76;26233;-32
2022/01/09 07:28:17;;;;;;;0.90;0.47;;;;;;;;;;1866444;75;26664;-34
2022/01/09 07:30:44;;;;;;;0.33;0.33;;;;;;;;;;1863068;76;26349;-31
2022/01/09 07:33:11;;;;;;;0.45;0.45;;;;;;;;;;1867425;76;26243;-31
2022/01/09 07:35:39;;;;;;;0.40;0.40;;;;;;;;;;1865864;76;26251;-34
2022/01/09 07:38:06;;;;;;;1.25;0.50;;;;;;;;;;1861672;75;26269;-32
2022/01/09 07:40:34;;;;;;;0.40;0.40;;;;;;;;;;1864136;76;26246;-33
2022/01/09 07:43:01;;;;;;;0.40;0.40;;;;;;;;;;1858375;76;26275;-33
2022/01/09 07:45:29;;;;;;;0.50;0.50;;;;;;;;;;1862447;76;26275;-34
2022/01/09 07:47:57;;;;;;;0.55;0.55;;;;;;;;;;1865387;76;26585;-35
2022/01/09 07:50:27;;;;;;;0.50;0.50;;;;;;;;;;1865227;76;26323;-33
2022/01/09 07:52:54;;;;;;;0.40;0.40;;;;;;;;;;1867087;76;26759;-34
2022/01/09 07:55:22;;;;;;;0.40;0.40;;;;;;;;;;1862095;76;26272;-32
2022/01/09 07:57:50;;;;;;;0.40;0.40;;;;;;;;;;1864289;76;26255;-33
2022/01/09 08:00:18;;;;;;;0.47;0.42;;;;;;;;;;1860013;76;26367;-32
2022/01/09 08:02:45;;;;;;;0.50;0.50;;;;;;;;;;1862709;75;25381;-33
2022/01/09 08:05:13;;;;;;;0.30;0.30;;;;;;;;;;1859241;75;26311;-32
2022/01/09 08:07:41;;;;;;;0.50;0.50;;;;;;;;;;1861201;76;27435;-34
2022/01/09 08:10:09;;;;;;;0.62;0.47;;;;;;;;;;1858653;76;26295;-32
2022/01/09 08:12:37;;;;;;;1.00;0.45;;;;;;;;;;1861571;76;25621;-32
2022/01/09 08:15:05;;;;;;;0.62;0.50;;;;;;;;;;1865836;76;26191;-31
2022/01/09 08:17:33;;;;;;;0.53;0.50;;;;;;;;;;1861950;76;26741;-32
2022/01/09 08:20:00;;;;;;;0.50;0.50;;;;;;;;;;1860223;76;26199;-33
2022/01/09 08:22:29;;;;;;;0.40;0.40;;;;;;;;;;1854688;75;26337;-31
2022/01/09 08:24:57;;;;;;;0.40;0.40;;;;;;;;;;1860963;76;26592;-32
2022/01/09 08:27:24;;;;;;;0.50;0.50;;;;;;;;;;1867242;76;26322;-31
2022/01/09 08:29:51;;;;;;;0.47;0.47;;;;;;;;;;1872253;76;26253;-31
2022/01/09 08:32:19;;;;;;;0.60;0.60;;;;;;;;;;1869332;76;26601;-32
2022/01/09 08:34:46;;;;;;;0.50;0.50;;;;;;;;;;1871164;76;26269;-34
2022/01/09 08:37:13;;;;;;;1.57;1.02;;;;;;;;;;1872431;76;26253;-31
2022/01/09 08:39:41;;;;;;;0.60;0.60;;;;;;;;;;1875188;76;26283;-33
2022/01/09 08:42:09;;;;;;;0.60;0.60;;;;;;;;;;1869258;76;26722;-31
2022/01/09 08:44:37;;;;;;;0.60;0.60;;;;;;;;;;1863911;76;26247;-32
2022/01/09 08:47:04;;;;;;;0.55;0.55;;;;;;;;;;1863882;76;26215;-31
2022/01/09 08:49:31;;;;;;;0.60;0.60;;;;;;;;;;1870195;76;26375;-34
2022/01/09 08:51:59;;;;;;;0.80;0.70;;;;;;;;;;1835971;77;26330;-32
2022/01/09 08:54:26;;;;;;;1.90;0.72;;;;;;;;;;1801401;79;26817;-32
2022/01/09 08:56:54;;;;;;;1.00;0.60;;;;;;;;;;1815312;78;26263;-32
2022/01/09 08:59:21;;;;;;;2.50;0.70;;;;;;;;;;1820118;78;26261;-32
2022/01/09 09:01:48;;;;;;;2.52;0.60;;;;;;;;;;1817086;78;26755;-32
2022/01/09 09:04:16;;;;;;;0.93;0.60;;;;;;;;;;1816306;78;26350;-32
2022/01/09 09:06:44;;;;;;;1.02;0.62;;;;;;;;;;1817425;78;26645;-31
2022/01/09 09:09:12;;;;;;;1.45;0.60;;;;;;;;;;1820521;78;26282;-32
2022/01/09 09:11:39;;;;;;;1.20;0.80;;;;;;;;;;1818297;78;26281;-34
2022/01/09 09:14:07;;;;;;;3.25;0.80;;;;;;;;;;1818151;78;26380;-35
2022/01/09 09:16:34;;;;;;;2.00;0.80;;;;;;;;;;1818576;78;26296;-33
2022/01/09 09:19:01;;;;;;;2.87;0.70;;;;;;;;;;1814177;78;26603;-34
2022/01/09 09:21:29;;;;;;;2.00;0.78;;;;;;;;;;1814005;78;26322;-31
2022/01/09 09:23:56;;;;;;;2.15;0.80;;;;;;;;;;1814057;78;26248;-32
2022/01/09 09:26:23;;;;;;;1.02;0.70;;;;;;;;;;1819503;78;26260;-32
2022/01/09 09:28:50;;;;;;;1.87;0.82;;;;;;;;;;1817234;77;27511;-34
2022/01/09 09:31:18;;;;;;;2.15;0.80;;;;;;;;;;1816296;78;26869;-32
2022/01/09 09:33:45;;;;;;;1.37;0.90;;;;;;;;;;1816820;78;26334;-32
2022/01/09 09:36:13;;;;;;;3.47;0.90;;;;;;;;;;1812647;78;25416;-31
2022/01/09 09:38:41;;;;;;;2.55;0.80;;;;;;;;;;1817952;77;26342;-32
2022/01/09 09:41:08;;;;;;;3.30;0.70;;;;;;;;;;1815914;78;26168;-32
2022/01/09 09:43:35;;;;;;;1.10;0.65;;;;;;;;;;1822963;78;26349;-31
2022/01/09 09:46:03;;;;;;;1.22;0.80;;;;;;;;;;1815759;78;26224;-32
2022/01/09 09:48:30;;;;;;;0.80;0.80;;;;;;;;;;1821504;78;26311;-32
2022/01/09 09:50:57;;;;;;;3.40;0.70;;;;;;;;;;1819815;78;26693;-32
2022/01/09 09:53:25;;;;;;;0.75;0.75;;;;;;;;;;1813743;78;26798;-31
2022/01/09 09:55:53;;;;;;;0.93;0.80;;;;;;;;;;1813074;78;26390;-32
2022/01/09 09:58:22;;;;;;;0.65;0.60;;;;;;;;;;1816952;78;26607;-32
2022/01/09 10:00:57;;;;;;;1.00;0.60;;;;;;;;;;1822527;78;26326;-32
2022/01/09 10:03:28;;;;;;;0.70;0.70;;;;;;;;;;1815753;78;26372;-33
2022/01/09 10:05:56;;;;;;;0.80;0.80;;;;;;;;;;1813823;78;26836;-33
2022/01/09 10:08:25;;;;;;;1.65;0.88;;;;;;;;;;1814581;78;26293;-34
2022/01/09 10:10:52;;;;;;;0.70;0.70;;;;;;;;;;1815662;78;26245;-33
2022/01/09 10:13:19;;;;;;;2.47;1.22;;;;;;;;;;1812322;78;26297;-31
2022/01/09 10:15:51;;;;;;;0.70;0.70;;;;;;;;;;1815226;78;26346;-32
2022/01/09 10:18:38;;;;;;;0.70;0.60;;;;;;;;;;1814093;78;26780;-33
2022/01/09 10:21:10;;;;;;;0.60;0.60;;;;;;;;;;1813762;77;26369;-32
2022/01/09 10:23:39;;;;;;;1.27;0.47;;;;;;;;;;1819376;78;27031;-34
2022/01/09 10:26:10;;;;;;;0.60;0.60;;;;;;;;;;1789640;78;26760;-31
2022/01/09 10:28:38;;;;;;;0.70;0.60;;;;;;;;;;1817339;77;26778;-32
2022/01/09 10:31:07;;;;;;;1.47;0.80;;;;;;;;;;1807180;78;26307;-31
2022/01/09 10:33:37;;;;;;;0.70;0.70;;;;;;;;;;1813983;78;26916;-31
2022/01/09 10:36:04;;;;;;;0.57;0.57;;;;;;;;;;1812749;78;26721;-32
2022/01/09 10:38:32;;;;;;;0.60;0.60;;;;;;;;;;1809456;77;26336;-31
2022/01/09 10:41:01;;;;;;;0.60;0.60;;;;;;;;;;1811718;78;26577;-31
2022/01/09 10:43:36;;;;;;;0.75;0.68;;;;;;;;;;1812342;78;26346;-33
2022/01/09 10:46:04;;;;;;;0.70;0.70;;;;;;;;;;1869399;76;26191;-31
2022/01/09 10:48:39;;;;;;;7.08;0.80;;;;;;;;;;1872968;76;27853;-31
2022/01/09 10:51:08;;;;;;;0.50;0.50;;;;;;;;;;1862682;76;26290;-31
2022/01/09 10:53:36;;;;;;;1.67;0.60;;;;;;;;;;1865189;76;26308;-32
2022/01/09 10:56:12;;;;;;;0.75;0.75;;;;;;;;;;1862684;75;26242;-35
2022/01/09 10:58:44;;;;;;;0.70;0.70;;;;;;;;;;1870109;76;26387;-33
2022/01/09 11:01:13;;;;;;;0.75;0.75;;;;;;;;;;1861082;76;26237;-34
2022/01/09 11:03:41;;;;;;;0.82;0.60;;;;;;;;;;1861195;76;26286;-31
2022/01/09 11:06:09;;;;;;;0.70;0.70;;;;;;;;;;1870016;76;26347;-37
2022/01/09 11:08:37;;;;;;;0.80;0.80;;;;;;;;;;1867161;76;26294;-33
2022/01/09 11:11:09;;;;;;;0.98;0.90;;;;;;;;;;1864139;76;26282;-33
2022/01/09 11:13:36;;;;;;;0.70;0.70;;;;;;;;;;1860220;76;26682;-31
2022/01/09 11:18:50;;;;;;;0.80;0.80;;;;;;;;;;1870054;76;26685;-33
2022/01/09 11:21:17;;;;;;;1.95;0.70;;;;;;;;;;1868619;75;26227;-31
2022/01/09 11:24:01;;;;;;;1.47;0.90;;;;;;;;;;1869398;76;26198;-31
2022/01/09 11:26:30;;;;;;;0.82;0.82;;;;;;;;;;1859904;75;26291;-33
2022/01/09 11:28:57;;;;;;;2.00;0.90;;;;;;;;;;1874188;75;26327;-33
2022/01/09 11:31:41;;;;;;;0.70;0.70;;;;;;;;;;1883742;74;26881;-31
2022/01/09 11:34:13;;;;;;;4.67;0.98;;;;;;;;;;1884605;74;27723;-34
2022/01/09 11:36:47;;;;;;;4.45;1.32;;;;;;;;;;1876555;74;26100;-31
2022/01/09 11:39:19;;;;;;;0.90;0.90;;;;;;;;;;1886920;75;26286;-32
2022/01/09 11:41:48;;;;;;;1.22;0.90;;;;;;;;;;1881290;74;26838;-34
2022/01/09 11:44:18;;;;;;;1.65;0.88;;;;;;;;;;1878084;74;26680;-31
2022/01/09 11:47:05;;;;;;;0.90;0.82;;;;;;;;;;1884786;75;26346;-34
2022/01/09 11:49:56;;;;;;;1.87;0.60;;;;;;;;;;1880677;75;26613;-34
2022/01/09 11:52:24;;;;;;;1.07;0.80;;;;;;;;;;1879618;75;26350;-32
2022/01/09 11:54:54;;;;;;;0.90;0.90;;;;;;;;;;1873198;75;26275;-31
2022/01/09 11:57:40;;;;;;;5.58;1.42;;;;;;;;;;1875306;75;26760;-33
2022/01/09 12:00:09;;;;;;;1.05;0.90;;;;;;;;;;1876560;75;26844;-37
2022/01/09 12:02:37;;;;;;;1.95;0.90;;;;;;;;;;1877820;75;26339;-35
2022/01/09 12:05:06;;;;;;;1.02;0.88;;;;;;;;;;1883723;75;26301;-35
2022/01/09 12:07:35;;;;;;;0.85;0.85;;;;;;;;;;1876831;75;26246;-32
2022/01/09 12:10:03;;;;;;;1.20;1.10;;;;;;;;;;1884563;75;26338;-35
2022/01/09 12:12:35;;;;;;;1.47;1.02;;;;;;;;;;1870938;75;26288;-34
2022/01/09 12:15:04;;;;;;;1.27;1.10;;;;;;;;;;1877025;75;26257;-34
2022/01/09 12:17:39;;;;;;;1.15;1.07;;;;;;;;;;1878287;75;26669;-33
2022/01/09 12:20:12;;;;;;;1.37;0.78;;;;;;;;;;1870554;75;26698;-33
2022/01/09 12:22:45;;;;;;;2.10;1.00;;;;;;;;;;1879744;74;26248;-33
2022/01/09 12:25:31;;;;;;;0.80;0.80;;;;;;;;;;1877042;75;26288;-34
2022/01/09 12:27:57;;;;;;;1.72;1.00;;;;;;;;;;1881536;75;26301;-35
2022/01/09 12:33:11;;;;;;;0.90;0.90;;;;;;;;;;1876305;75;25825;-34
2022/01/09 12:35:39;;;;;;;1.57;1.00;;;;;;;;;;1872572;75;26451;-32
2022/01/09 12:38:08;;;;;;;1.00;1.00;;;;;;;;;;1872702;75;26332;-33
2022/01/09 12:40:36;;;;;;;1.10;0.80;;;;;;;;;;1878473;75;26191;-34
2022/01/09 12:43:04;;;;;;;1.32;0.80;;;;;;;;;;1879919;75;26264;-32
2022/01/09 12:45:35;;;;;;;0.90;0.90;;;;;;;;;;1884603;74;26343;-34
2022/01/09 12:48:03;;;;;;;2.52;1.10;;;;;;;;;;1874287;75;27387;-34
2022/01/09 12:50:32;;;;;;;0.80;0.80;;;;;;;;;;1877944;75;26365;-33
2022/01/09 12:53:16;;;;;;;0.90;0.90;;;;;;;;;;1879977;75;26341;-33
2022/01/09 12:55:54;;;;;;;0.98;0.90;;;;;;;;;;1879936;75;26332;-36
2022/01/09 12:58:23;;;;;;;0.75;0.75;;;;;;;;;;1888678;75;26265;-35
2022/01/09 13:00:50;;;;;;;0.82;0.82;;;;;;;;;;1873611;75;26264;-33
2022/01/09 13:03:18;;;;;;;0.90;0.90;;;;;;;;;;1879519;75;26392;-36
2022/01/09 13:05:53;;;;;;;1.00;1.00;;;;;;;;;;1880433;75;26264;-33
2022/01/09 13:08:20;;;;;;;1.00;1.00;;;;;;;;;;1874485;75;26241;-33
2022/01/09 13:10:49;;;;;;;0.90;0.90;;;;;;;;;;1883884;75;26850;-36
2022/01/09 13:13:18;;;;;;;1.20;1.10;;;;;;;;;;1880049;75;26982;-34
2022/01/09 13:15:45;;;;;;;0.95;0.95;;;;;;;;;;1876451;75;26324;-33
2022/01/09 13:18:13;;;;;;;0.80;0.80;;;;;;;;;;1880704;75;26248;-33
2022/01/09 13:20:40;;;;;;;0.82;0.82;;;;;;;;;;1880290;74;26283;-33
2022/01/09 13:23:08;;;;;;;0.93;0.88;;;;;;;;;;1879093;74;26308;-34
2022/01/09 13:25:46;;;;;;;0.95;0.90;;;;;;;;;;1875368;75;26270;-33
2022/01/09 13:28:21;;;;;;;1.02;1.00;;;;;;;;;;1880428;75;26759;-32
2022/01/09 13:30:48;;;;;;;0.88;0.88;;;;;;;;;;1878577;75;27793;-33
2022/01/09 13:33:16;;;;;;;1.00;1.00;;;;;;;;;;1872059;74;26250;-32
2022/01/09 13:35:43;;;;;;;1.45;1.22;;;;;;;;;;1882247;75;26725;-34
2022/01/09 13:38:11;;;;;;;1.40;1.00;;;;;;;;;;1879303;75;26345;-33
2022/01/09 13:40:38;;;;;;;1.00;1.00;;;;;;;;;;1871506;75;26718;-33
2022/01/09 13:43:09;;;;;;;1.20;1.20;;;;;;;;;;1871291;75;26311;-34
2022/01/09 13:45:39;;;;;;;1.05;1.05;;;;;;;;;;1884282;75;26323;-32
2022/01/09 13:48:06;;;;;;;1.00;1.00;;;;;;;;;;1878641;75;26741;-36
2022/01/09 13:50:35;;;;;;;0.93;0.93;;;;;;;;;;1883461;75;26195;-33
2022/01/09 13:53:07;;;;;;;1.15;1.15;;;;;;;;;;1878385;75;26316;-35
2022/01/09 13:55:36;;;;;;;1.17;1.10;;;;;;;;;;1873293;75;26367;-34
2022/01/09 13:58:06;;;;;;;1.57;1.10;;;;;;;;;;1882111;75;26375;-36
2022/01/09 14:00:38;;;;;;;1.00;1.00;;;;;;;;;;1885555;75;26762;-33
2022/01/09 14:03:07;;;;;;;1.00;1.00;;;;;;;;;;1878030;75;26257;-33
2022/01/09 14:05:35;;;;;;;1.05;1.05;;;;;;;;;;1886724;75;26371;-36
2022/01/09 14:08:03;;;;;;;1.00;1.00;;;;;;;;;;1874636;75;26590;-33
2022/01/09 14:10:35;;;;;;;1.02;1.02;;;;;;;;;;1876512;75;26735;-34
2022/01/09 14:13:03;;;;;;;0.98;0.98;;;;;;;;;;1880129;75;26305;-33
2022/01/09 14:15:31;;;;;;;1.05;1.00;;;;;;;;;;1871264;75;26246;-33
2022/01/09 14:17:58;;;;;;;0.95;0.95;;;;;;;;;;1871684;75;26225;-35
2022/01/09 14:20:29;;;;;;;1.10;1.10;;;;;;;;;;1884188;75;26288;-33
2022/01/09 14:22:57;;;;;;;1.00;1.00;;;;;;;;;;1883538;74;26269;-33
2022/01/09 14:25:26;;;;;;;1.00;1.00;;;;;;;;;;1883443;75;26257;-33
2022/01/09 14:27:54;;;;;;;1.00;1.00;;;;;;;;;;1880116;75;26205;-33
2022/01/09 14:30:24;;;;;;;1.17;1.10;;;;;;;;;;1871332;75;26360;-34
2022/01/09 14:33:05;;;;;;;1.00;1.00;;;;;;;;;;1864726;76;26939;-34
2022/01/09 14:35:39;;;;;;;1.25;1.02;;;;;;;;;;1865108;76;27154;-32
2022/01/09 14:38:04;;;;;;;1.05;1.05;;;;;;;;;;1856849;75;26273;-35
2022/01/09 14:40:32;;;;;;;1.10;1.10;;;;;;;;;;1867791;76;26261;-32
2022/01/09 14:43:00;;;;;;;1.20;1.20;;;;;;;;;;1859773;76;26238;-33
2022/01/09 14:45:27;;;;;;;1.10;1.10;;;;;;;;;;1868172;76;26310;-33
2022/01/09 14:47:55;;;;;;;1.10;1.10;;;;;;;;;;1867807;76;27525;-33
2022/01/09 14:50:22;;;;;;;1.10;1.10;;;;;;;;;;1860809;76;26278;-35
2022/01/09 14:52:49;;;;;;;0.98;0.98;;;;;;;;;;1865138;76;26263;-36
2022/01/09 14:55:17;;;;;;;1.00;1.00;;;;;;;;;;1861732;76;26308;-36
2022/01/09 14:57:44;;;;;;;1.15;1.15;;;;;;;;;;1849545;76;26754;-35